Airfield :







YOU CAN JOIN US ON...

 
LOGIN :

Register | Disclaimer

   EN    FR    IT 

 









Legend :    VFR   Marginal VFR   IFR   Intensive IFR   Very Intensive IFR
Visi :
Ceiling :
>= 8 km
>= 3000ft
5 to 8 km
1000 to 3000 ft
1500m to 5 km
500 to 1000 ft
800 to 1500m
200 to 500 ft
< 800m
< 200 ft
Symbols :   Thunderstorms  Fog  Heavy snow  Heavy precipitations  Wind > 20 kt






- Airport Elevation : 342 ft


KCON - Concord Municipal

CURRENT METAR :
  • 201751Z AUTO 00000KT 10SM CLR 14/04 A3007 RMK AO2 SLP184 I6000 T01390039 10139 21006 58019

EXPIRED METARs :
  • 201651Z AUTO 18004KT 10SM CLR 13/04 A3008 RMK AO2 SLP190 T01280039
  • 201551Z AUTO VRB03KT 10SM CLR 11/03 A3011 RMK AO2 SLP199 T01060033

TAF KCON
Valid from the 20 at 18:00 until the 21 at 18:00 UTC


201730Z 2018/2118 18004KT P6SM BKN200
FM210000 00000KT P6SM BKN050
TEMPO 2109/2111 2SM BR
FM211400 34004KT P6SM FEW050



MET'MAP, your aeronautical weather chart ! - Copyright ORBIFLY December 2007 - Disclaimer

ORBIFLY MET'MAP TEAM :

Programming & Development : Alexandra Zaïnal
Concept & Development : Baudouin d'Aumeries
Co-Development & Prog : Marc-Olivier Méhu
Technical & hardware support : Manuel Goepfert

Contact : metmap@orbifly.com




SOURCES & CREDITS :

   NOAA